Frey Ranch - Fallon, Nevada Weather observations

Data are for observation ending at time listed.
 Day   Time    Ave.   Ave.  Ave.  Vector   Max.   Stn.    Total    Solar   Ave.  
  of    of     Air    Rel.  Wind   Wind    Wind   Baro.  Precip.   Rad.    Soil  
Year   Day     Temp.  Hum.  Speed  Dir.    Gust   Pres.                    Temp. 
2015   (PST)    F      %     mph   deg.    mph     mb.     in.     W/m2     F   
------------------------------------------------------------------------------
 114    8:10   53.9    54    5.2   268      8.5   999.0    0.00     179    999.0
 114    8:20   54.1    54    4.3   275      9.0   999.0    0.00     122    999.0
 114    8:30   54.3    52    4.0   294      6.4   999.0    0.00     146    999.0
 114    8:40   54.9    52    4.6   310      9.3   999.0    0.00     260    999.0
 114    8:50   55.3    49    7.7   295     14.0   999.0    0.00     274    999.0
 114    9:00   55.5    49    6.4   317     12.4   999.0    0.00     340    999.0
 114    9:10   56.0    49    6.5   300     11.7   999.0    0.00     426    999.0
 114    9:20   56.0    48    8.4   299     14.7   999.0    0.00     334    999.0
 114    9:30   55.5    49    5.5   315     12.6   999.0    0.00     160    999.0
 114    9:40   55.4    48    7.1   314     14.7   999.0    0.00     278    999.0
 114    9:50   55.7    49    7.7   303     15.5   999.0    0.00     246    999.0
 114   10:00   55.6    50    8.3   301     13.4   999.0    0.00     278    999.0
 114   10:10   55.8    48   12.3   293     20.9   999.0    0.00     363    999.0
 114   10:20   56.4    45   14.1   289     20.8   999.0    0.00     479    999.0
 114   10:30   56.8    44   14.1   286     21.9   999.0    0.00     570    999.0
 114   10:40   57.4    45   12.0   281     18.4   999.0    0.00     540    999.0
 114   10:50   57.8    42   15.7   286     24.3   999.0    0.00     794    999.0
 114   11:00   58.4    41   16.1   273     27.1   999.0    0.00     692    999.0
 114   11:10   58.1    38   14.8   281     23.4   999.0    0.00     528    999.0
 114   11:20   58.3    36   14.1   287     21.6   999.0    0.00     543    999.0
 114   11:30   58.7    35   12.8   287     20.4   999.0    0.00     588    999.0
 114   11:40   59.1    36   13.6   293     21.4   999.0    0.00     713    999.0
 114   11:50   59.0    35   14.1   287     19.6   999.0    0.00     657    999.0
 114   12:00   58.9    34   11.2   286     17.1   999.0    0.00     424    999.0
 114   12:10   58.7    33   10.5   286     20.3   999.0    0.00     403    999.0
 114   12:20   59.1    32   12.2   286     18.8   999.0    0.00     506    999.0
 114   12:30   59.8    32   12.5   297     19.4   999.0    0.00     771    999.0
 114   12:40   61.1    32   12.6   291     18.8   999.0    0.00    1075    999.0
 114   12:50   61.7    31   14.3   282     22.0   999.0    0.00     983    999.0
 114   13:00   60.5    30   12.6   287     21.0   999.0    0.00     423    999.0
 114   13:10   60.1    31   10.7   294     18.7   999.0    0.00     614    999.0
 114   13:20   60.5    32   11.2   293     16.1   999.0    0.00     302    999.0
 114   13:30   59.9    33   11.4   298     22.6   999.0    0.00     365    999.0
 114   13:40   61.0    34   13.6   299     23.1   999.0    0.00     807    999.0
 114   13:50   62.1    34   12.2   293     19.8   999.0    0.00     923    999.0
 114   14:00   61.7    34   14.8   291     21.5   999.0    0.00     892    999.0
 114   14:10   61.3    34   14.1   288     21.4   999.0    0.00     680    999.0
 114   14:20   60.6    34   13.1   286     21.1   999.0    0.00     556    999.0
 114   14:30   60.2    34   12.7   281     21.4   999.0    0.00     421    999.0
 114   14:40   60.1    34   14.0   275     20.0   999.0    0.00     479    999.0
 114   14:50   60.6    33   14.8   280     23.4   999.0    0.00     561    999.0
 114   15:00   60.4    34   14.3   281     22.1   999.0    0.00     507    999.0
 114   15:10   59.5    35   14.6   287     22.9   999.0    0.00     296    999.0
 114   15:20   58.6    34   17.0   284     24.2   999.0    0.00     251    999.0
 114   15:30   58.2    34   17.1   285     24.9   999.0    0.00     199    999.0
 114   15:40   57.6    34   18.5   281     27.3   999.0    0.00     191    999.0
 114   15:50   57.4    34   19.3   285     30.9   999.0    0.00     221    999.0
 114   16:00   57.3    34   17.9   280     28.6   999.0    0.00     174    999.0
 114   16:10   57.0    34   15.4   283     22.6   999.0    0.00     134    999.0
 114   16:20   56.7    34   15.0   283     22.8   999.0    0.00     105    999.0
 114   16:30   56.2    34   13.8   277     22.3   999.0    0.00      64    999.0
 114   16:40   55.8    34   13.5   282     21.7   999.0    0.00      51    999.0
 114   16:50   55.4    34   10.8   278     17.1   999.0    0.00      47    999.0
 114   17:00   55.1    35    9.9   281     19.5   999.0    0.00      44    999.0
 114   17:10   54.9    35   14.2   280     23.8   999.0    0.00      44    999.0
 114   17:20   54.7    36   13.4   282     20.8   999.0    0.00      31    999.0
 114   17:30   54.3    36   12.4   283     18.5   999.0    0.00      17    999.0
 114   17:40   54.1    36   11.4   286     16.8   999.0    0.00       6    999.0
 114   17:50   53.7    37   10.3   289     17.6   999.0    0.00       1    999.0
 114   18:00   53.6    37   11.5   289     17.2   999.0    0.00       0    999.0
 114   18:10   53.3    39    8.9   295     16.3   999.0    0.00       0    999.0
 114   18:20   53.0    40    8.3   300     14.3   999.0    0.00       0    999.0
 114   18:30   53.1    40    8.1   292     13.0   999.0    0.00       0    999.0
 114   18:40   53.2    39    9.1   286     15.4   999.0    0.00       0    999.0
 114   18:50   52.6    41    8.6   281     13.1   999.0    0.00       0    999.0
 114   19:00   52.3    41   10.0   275     15.7   999.0    0.00       0    999.0
 114   19:10   52.4    40   10.1   290     15.2   999.0    0.00       0    999.0
 114   19:20   52.2    41    8.3   290     15.5   999.0    0.00       0    999.0
 114   19:30   51.9    42    7.6   293     13.1   999.0    0.00       0    999.0
 114   19:40   51.5    43    6.9   295     11.0   999.0    0.00       0    999.0
 114   19:50   51.1    45    6.4   300      9.1   999.0    0.00       0    999.0
 114   20:00   50.5    48    4.6   303      7.0   999.0    0.00       0    999.0
 114   20:10   49.7    52    2.7   314      4.9   999.0    0.00       0    999.0
 114   20:20   49.8    50    1.9   348      4.7   999.0    0.00       0    999.0
 114   20:30   49.5    51    0.7    26      2.7   999.0    0.00       0    999.0
 114   20:40   49.5    50    0.7    35      2.0   999.0    0.00       0    999.0
 114   20:50   49.3    50    0.3    33      1.4   999.0    0.00       0    999.0
 114   21:00   49.9    48    3.3   318      5.1   999.0    0.00       0    999.0
 114   21:10   49.5    51    2.7   311      4.2   999.0    0.00       0    999.0
 114   21:20   49.5    52    2.6   276      5.6   999.0    0.00       0    999.0
 114   21:30   49.0    53    2.2   165      4.3   999.0    0.00       0    999.0
 114   21:40   49.3    56    1.8   127      4.7   999.0    0.00       0    999.0
 114   21:50   48.7    61    1.4    93      3.1   999.0    0.00       0    999.0
 114   22:00   48.3    62    2.8    98      3.6   999.0    0.00       0    999.0
 114   22:10   47.9    64    3.5   125      4.2   999.0    0.00       0    999.0
 114   22:20   48.0    62    4.2   137      6.1   999.0    0.00       0    999.0
 114   22:30   48.3    60    3.2   122      4.2   999.0    0.00       0    999.0
 114   22:40   48.1    62    3.0    90      4.1   999.0    0.00       0    999.0
 114   22:50   47.8    64    2.8    75      4.0   999.0    0.00       0    999.0
 114   23:00   47.8    63    3.2    74      4.9   999.0    0.00       0    999.0
 114   23:10   48.6    57    4.3    79      7.6   999.0    0.00       0    999.0
 114   23:20   48.9    56    3.6    82      9.0   999.0    0.00       0    999.0
 114   23:30   49.0    56    2.7    70      6.4   999.0    0.00       0    999.0
 114   23:40   48.8    58    4.1    92      7.3   999.0    0.00       0    999.0
 114   23:50   48.6    59    3.3    78      4.6   999.0    0.00       0    999.0
 115    0:00   48.6    59    1.9    74      3.5   999.0    0.00       0    999.0
 115    0:10   48.6    60    2.5    75      4.5   999.0    0.00       0    999.0
 115    0:20   48.5    60    1.4    10      2.7   999.0    0.00       0    999.0
 115    0:30   48.4    62    0.6    33      3.5   999.0    0.00       0    999.0
 115    0:40   48.5    62    1.4    41      4.8   999.0    0.00       0    999.0
 115    0:50   48.8    58    3.4     5      7.3   999.0    0.00       0    999.0
 115    1:00   48.6    61    3.7   358      7.4   999.0    0.00       0    999.0
 115    1:10   47.4    68    3.4   351      8.3   999.0    0.00       0    999.0
 115    1:20   46.1    72    4.5    12     10.8   999.0    0.03       0    999.0
 115    1:30   44.7    78    3.9   356      8.5   999.0    0.02       0    999.0
 115    1:40   44.1    80    2.8     6      5.8   999.0    0.01       0    999.0
 115    1:50   43.7    82    3.2     8      7.4   999.0    0.02       0    999.0
 115    2:00   43.7    83    1.6    14      4.2   999.0    0.03       0    999.0
 115    2:10   43.5    85    3.8    69      8.2   999.0    0.01       0    999.0
 115    2:20   43.3    85    4.9    74      8.6   999.0    0.02       0    999.0
 115    2:30   43.2    86    6.2    81      8.7   999.0    0.01       0    999.0
 115    2:40   43.0    86    6.2    82      8.7   999.0    0.01       0    999.0
 115    2:50   43.0    87    3.3    69      8.2   999.0    0.01       0    999.0
 115    3:00   43.1    87    3.3    72      7.1   999.0    0.01       0    999.0
 115    3:10   43.0    87    2.1    62      6.0   999.0    0.01       0    999.0
 115    3:20   42.8    87    1.4    21      3.7   999.0    0.01       0    999.0
 115    3:30   42.7    87    2.8    71      7.5   999.0    0.01       0    999.0
 115    3:40   42.6    87    4.3    76      7.1   999.0    0.01       0    999.0
 115    3:50   42.6    87    2.7    66      6.8   999.0    0.00       0    999.0
 115    4:00   42.5    87    2.1    45      6.0   999.0    0.01       0    999.0
 115    4:10   42.7    87    1.1   348      3.0   999.0    0.01       0    999.0
 115    4:20   42.7    87    2.1     2      4.0   999.0    0.00       1    999.0
 115    4:30   42.6    87    1.2   360      3.3   999.0    0.02       3    999.0
 115    4:40   42.7    87    0.6   316      3.3   999.0    0.00       4    999.0
 115    4:50   42.7    87    1.2   334      3.0   999.0    0.02      10    999.0
 115    5:00   42.7    87    0.5   302      2.3   999.0    0.00      22    999.0
 115    5:10   43.0    87    0.6   323      2.4   999.0    0.00      26    999.0
 115    5:20   43.1    86    1.7   330      4.0   999.0    0.00      39    999.0
 115    5:30   43.4    86    3.4   322      6.4   999.0    0.00      98    999.0
 115    5:40   43.7    85    4.3   309      8.8   999.0    0.00      97    999.0
 115    5:50   44.0    83    5.0   307     10.3   999.0    0.00     145    999.0
 115    6:00   44.2    81    5.9   308     10.2   999.0    0.00     137    999.0
 115    6:10   44.2    80    6.2   306     10.7   999.0    0.00     102    999.0
 115    6:20   44.2    81    5.6   314     10.1   999.0    0.00     131    999.0
 115    6:30   44.4    81    5.2   324     10.6   999.0    0.00     261    999.0
 115    6:40   44.8    79    5.6   315      9.9   999.0    0.00     313    999.0
 115    6:50   45.3    77    5.5   319     13.1   999.0    0.00     290    999.0
 115    7:00   45.6    77    4.9   324      9.2   999.0    0.00     296    999.0
 115    7:10   44.9    78    5.0   325     10.7   999.0    0.00      94    999.0
 115    7:20   44.1    82    5.0   330      9.6   999.0    0.00     127    999.0
 115    7:30   43.7    82    6.1   327     11.7   999.0    0.01     169    999.0
 115    7:40   43.3    83    6.6   320     14.1   999.0    0.01     127    999.0
 115    7:50   42.6    84    9.4   317     16.3   999.0    0.02      99    999.0
 115    8:00   41.8    84    9.2   314     19.2   999.0    0.00     142    999.0

Return to Frey Ranch - Fallon, Nevada graphs page.


Western Regional Climate Center,wrcc@dri.edu